createdAt,value
2018-06-30T00:00:29.109Z,1.00
2018-06-30T00:02:58.245Z,67.80
2018-06-30T00:05:27.370Z,99.90
2018-06-30T00:07:56.487Z,99.90
2018-06-30T00:10:29.480Z,1.00
2018-06-30T00:12:59.694Z,1.00
2018-06-30T00:15:28.951Z,1.00
2018-06-30T00:17:58.312Z,99.90
2018-06-30T00:20:27.422Z,1.00
2018-06-30T00:22:56.674Z,80.60
2018-06-30T00:25:25.774Z,80.60
2018-06-30T00:27:56.460Z,80.50
2018-06-30T00:30:26.747Z,80.50
2018-06-30T00:32:56.562Z,1.00
2018-06-30T00:35:25.695Z,90.00
2018-06-30T00:37:54.824Z,64.20
2018-06-30T00:40:23.940Z,1.00
2018-06-30T00:42:53.054Z,90.00
2018-06-30T00:45:22.181Z,90.00
2018-06-30T00:47:51.286Z,1.00
2018-06-30T00:50:20.413Z,1.00
2018-06-30T00:52:49.552Z,99.90
2018-06-30T00:55:18.688Z,99.90
2018-06-30T00:57:47.802Z,13.50
2018-06-30T01:00:16.935Z,99.90
2018-06-30T01:02:46.060Z,99.90
2018-06-30T01:05:15.191Z,99.90
2018-06-30T01:07:44.420Z,99.90
2018-06-30T01:10:13.567Z,99.90
2018-06-30T01:12:42.698Z,1.00
2018-06-30T01:15:11.847Z,1.00
2018-06-30T01:17:40.994Z,67.50
2018-06-30T01:20:10.168Z,99.90
2018-06-30T01:22:39.393Z,24.80
2018-06-30T01:25:08.540Z,99.90
2018-06-30T01:27:37.744Z,34.10
2018-06-30T01:30:08.584Z,64.50
2018-06-30T01:32:37.734Z,1.00
2018-06-30T01:35:06.985Z,56.30
2018-06-30T01:37:36.171Z,99.90
2018-06-30T01:40:05.503Z,99.90
2018-06-30T01:42:34.788Z,99.90
2018-06-30T01:45:04.568Z,99.90
2018-06-30T01:47:33.721Z,99.90
2018-06-30T01:50:02.883Z,99.90
2018-06-30T01:52:32.018Z,99.90
2018-06-30T01:55:01.186Z,13.20
2018-06-30T01:57:30.356Z,13.20
2018-06-30T01:59:59.470Z,1.00
2018-06-30T02:02:28.639Z,13.20
2018-06-30T02:04:57.786Z,13.20
2018-06-30T02:07:26.927Z,99.90
2018-06-30T02:09:56.048Z,1.00
2018-06-30T02:12:25.168Z,1.00
2018-06-30T02:14:54.304Z,13.20
2018-06-30T02:17:23.439Z,99.90
2018-06-30T02:19:52.559Z,99.90
2018-06-30T02:22:21.684Z,13.20
2018-06-30T02:24:50.795Z,99.90
2018-06-30T02:27:19.927Z,99.90
2018-06-30T02:29:49.068Z,99.90
2018-06-30T02:32:18.203Z,99.90
2018-06-30T02:34:47.322Z,99.90
2018-06-30T02:37:16.455Z,99.90
2018-06-30T02:39:45.567Z,99.90
2018-06-30T02:42:14.683Z,99.90
2018-06-30T02:44:43.809Z,1.00
2018-06-30T02:47:12.926Z,1.00
2018-06-30T02:49:42.044Z,1.00
2018-06-30T02:52:11.159Z,1.00
2018-06-30T02:54:40.297Z,1.00
2018-06-30T02:57:09.492Z,24.60
2018-06-30T02:59:38.610Z,24.70
2018-06-30T03:02:07.772Z,99.90
2018-06-30T03:04:36.895Z,99.90
2018-06-30T03:07:06.025Z,99.90
2018-06-30T03:09:35.157Z,99.90
2018-06-30T03:12:04.258Z,99.90
2018-06-30T03:14:34.288Z,99.90
2018-06-30T03:17:03.498Z,99.90
2018-06-30T03:19:32.631Z,99.90
2018-06-30T03:22:01.755Z,99.90
2018-06-30T03:24:30.897Z,99.90
2018-06-30T03:27:00.020Z,1.00
2018-06-30T03:29:29.148Z,1.00
2018-06-30T03:31:58.258Z,1.00
2018-06-30T03:34:27.393Z,1.00
2018-06-30T03:36:56.498Z,1.00
2018-06-30T03:39:25.623Z,1.00
2018-06-30T03:41:54.857Z,1.00
2018-06-30T03:44:24.015Z,1.00
2018-06-30T03:46:53.148Z,1.00
2018-06-30T03:49:22.267Z,1.00
2018-06-30T03:51:51.381Z,1.00
2018-06-30T03:54:20.507Z,1.00
2018-06-30T03:56:49.647Z,1.00
2018-06-30T03:59:18.756Z,1.00
2018-06-30T04:01:47.908Z,1.00
2018-06-30T04:04:17.040Z,1.00
2018-06-30T04:06:46.202Z,1.00
2018-06-30T04:09:15.322Z,1.00
2018-06-30T04:11:44.451Z,1.00
2018-06-30T04:14:13.575Z,1.00
2018-06-30T04:16:42.700Z,1.00
2018-06-30T04:19:13.256Z,1.00
2018-06-30T04:21:43.763Z,1.00
2018-06-30T04:24:12.895Z,1.00
2018-06-30T04:26:42.809Z,1.00
2018-06-30T04:29:12.547Z,1.00
2018-06-30T04:31:41.666Z,1.00
2018-06-30T04:34:10.792Z,1.00
2018-06-30T04:36:39.925Z,1.00
2018-06-30T04:39:10.202Z,1.00
2018-06-30T04:41:39.328Z,1.00
2018-06-30T04:44:08.444Z,1.00
2018-06-30T04:46:37.574Z,1.00
2018-06-30T04:49:06.710Z,1.00
2018-06-30T04:51:35.820Z,1.00
2018-06-30T04:54:04.939Z,1.00
2018-06-30T04:56:34.060Z,1.00
2018-06-30T04:59:03.224Z,1.00
2018-06-30T05:01:32.335Z,1.00
2018-06-30T05:04:01.449Z,1.00
2018-06-30T05:06:30.577Z,1.00
2018-06-30T05:08:59.720Z,1.00
2018-06-30T05:11:28.875Z,1.00
2018-06-30T05:13:58.028Z,1.00
2018-06-30T05:16:27.186Z,1.00
2018-06-30T05:18:56.322Z,1.00
2018-06-30T05:21:25.474Z,1.00
2018-06-30T05:23:54.620Z,1.00
2018-06-30T05:26:23.787Z,1.00
2018-06-30T05:28:52.935Z,1.00
2018-06-30T05:31:22.084Z,1.00
2018-06-30T05:33:51.243Z,1.00
2018-06-30T05:36:20.434Z,1.00
2018-06-30T05:38:49.596Z,1.00
2018-06-30T05:41:18.794Z,1.00
2018-06-30T05:43:47.909Z,1.00
2018-06-30T05:46:17.203Z,1.00
2018-06-30T05:48:46.356Z,1.00
2018-06-30T05:51:15.505Z,1.00
2018-06-30T05:53:44.666Z,1.00
2018-06-30T05:56:13.796Z,1.00
2018-06-30T05:58:42.939Z,1.00
2018-06-30T06:01:12.097Z,1.00
2018-06-30T06:03:41.255Z,1.00
2018-06-30T06:06:10.404Z,1.00
2018-06-30T06:08:39.552Z,1.00
2018-06-30T06:11:08.706Z,1.00
2018-06-30T06:13:37.892Z,1.00
2018-06-30T06:16:07.012Z,1.00
2018-06-30T06:18:36.155Z,1.00
2018-06-30T06:21:05.301Z,1.00
2018-06-30T06:23:34.448Z,1.00
2018-06-30T06:26:03.612Z,1.00
2018-06-30T06:28:32.764Z,1.00
2018-06-30T06:31:01.904Z,1.00
2018-06-30T06:33:31.053Z,1.00
2018-06-30T06:36:00.280Z,1.00
2018-06-30T06:38:29.441Z,1.00
2018-06-30T06:40:58.571Z,1.00
2018-06-30T06:43:27.732Z,1.00
2018-06-30T06:45:56.877Z,1.00
2018-06-30T06:48:26.029Z,1.00
2018-06-30T06:50:55.219Z,1.00
2018-06-30T06:53:24.386Z,1.00
2018-06-30T06:55:53.539Z,1.00
2018-06-30T06:58:22.699Z,1.00
2018-06-30T07:00:51.857Z,1.00
2018-06-30T07:03:20.995Z,1.00
2018-06-30T07:05:50.138Z,1.00
2018-06-30T07:08:19.267Z,1.00
2018-06-30T07:10:48.401Z,1.00
2018-06-30T07:13:17.511Z,1.00
2018-06-30T07:15:46.628Z,1.00
2018-06-30T07:18:15.735Z,1.00
2018-06-30T07:20:44.847Z,1.00
2018-06-30T07:23:13.963Z,1.00
2018-06-30T07:25:43.108Z,1.00
2018-06-30T07:28:12.227Z,1.00
2018-06-30T07:30:41.366Z,99.90
2018-06-30T07:33:10.475Z,99.90
2018-06-30T07:35:39.601Z,99.90
2018-06-30T07:38:08.724Z,99.90
2018-06-30T07:40:37.867Z,99.90
2018-06-30T07:43:07.161Z,99.90
2018-06-30T07:45:36.229Z,99.90
2018-06-30T07:48:05.499Z,99.90
2018-06-30T07:50:34.827Z,99.90
2018-06-30T07:53:03.951Z,99.90
2018-06-30T07:55:33.078Z,99.90
2018-06-30T07:58:02.213Z,99.90
2018-06-30T08:00:31.348Z,99.90
2018-06-30T08:03:00.467Z,99.90
2018-06-30T08:05:29.777Z,99.90
2018-06-30T08:07:58.762Z,99.90
2018-06-30T08:10:27.919Z,99.90
2018-06-30T08:12:57.082Z,99.90
2018-06-30T08:15:26.227Z,99.90
2018-06-30T08:17:55.387Z,99.90
2018-06-30T08:20:24.538Z,99.90
2018-06-30T08:22:53.701Z,99.90
2018-06-30T08:25:23.057Z,99.90
2018-06-30T08:27:52.210Z,99.90
2018-06-30T08:30:21.384Z,99.90
2018-06-30T08:32:50.526Z,99.90
2018-06-30T08:35:19.680Z,99.90
2018-06-30T08:37:48.836Z,99.90
2018-06-30T08:40:17.051Z,28.00
2018-06-30T08:42:46.208Z,27.40
2018-06-30T08:45:15.346Z,1.00
2018-06-30T08:47:44.501Z,1.00
2018-06-30T08:50:13.641Z,1.00
2018-06-30T08:52:42.816Z,99.90
2018-06-30T08:55:12.063Z,91.00
2018-06-30T08:57:41.202Z,99.90
2018-06-30T09:00:10.381Z,99.90
2018-06-30T09:02:39.515Z,99.90
2018-06-30T09:05:08.687Z,99.90
2018-06-30T09:07:37.833Z,99.90
2018-06-30T09:10:06.998Z,99.90
2018-06-30T09:12:37.079Z,99.90
2018-06-30T09:15:06.304Z,99.90
2018-06-30T09:17:35.456Z,99.90
2018-06-30T09:20:04.830Z,99.90
2018-06-30T09:22:33.975Z,99.90
2018-06-30T09:25:03.144Z,99.90
2018-06-30T09:27:32.280Z,99.90
2018-06-30T09:30:01.435Z,99.90
2018-06-30T09:32:30.611Z,99.90
2018-06-30T09:34:59.780Z,99.90
2018-06-30T09:37:28.951Z,14.50
2018-06-30T09:39:58.112Z,99.90
2018-06-30T09:42:27.465Z,99.90
2018-06-30T09:44:56.633Z,99.90
2018-06-30T09:47:25.790Z,99.90
2018-06-30T09:49:54.956Z,1.00
2018-06-30T09:52:24.161Z,1.00
2018-06-30T09:54:53.331Z,99.90
2018-06-30T09:57:22.479Z,99.90
2018-06-30T09:59:51.651Z,99.90
2018-06-30T10:02:20.811Z,99.90
2018-06-30T10:04:49.998Z,99.90
2018-06-30T10:07:19.153Z,99.90
2018-06-30T10:09:48.397Z,99.90
2018-06-30T10:12:18.378Z,99.90
2018-06-30T10:14:47.525Z,1.00
2018-06-30T10:17:16.681Z,1.00
2018-06-30T10:19:45.823Z,1.00
2018-06-30T10:22:14.973Z,1.00
2018-06-30T10:24:44.132Z,1.00
2018-06-30T10:28:12.008Z,1.00
2018-06-30T10:44:19.552Z,99.90
2018-06-30T10:46:52.672Z,99.90
2018-06-30T10:52:13.891Z,78.10
2018-06-30T10:54:43.068Z,73.20
2018-06-30T10:57:12.237Z,87.00
2018-06-30T10:59:41.384Z,80.10
2018-06-30T11:02:10.537Z,16.30
2018-06-30T11:04:39.747Z,13.00
2018-06-30T11:07:08.900Z,1.00
2018-06-30T11:16:21.320Z,1.00
2018-06-30T11:18:50.452Z,1.00
2018-06-30T11:21:19.562Z,1.00
2018-06-30T11:23:48.704Z,99.90
2018-06-30T11:26:17.863Z,99.90
2018-06-30T11:28:47.000Z,99.90
2018-06-30T11:31:16.145Z,99.90
2018-06-30T11:33:45.291Z,99.90
2018-06-30T11:36:14.418Z,99.90
2018-06-30T11:38:43.569Z,99.90
2018-06-30T11:41:12.699Z,99.90
2018-06-30T11:43:41.843Z,99.90
2018-06-30T11:46:10.967Z,99.90
2018-06-30T11:48:40.124Z,99.90
2018-06-30T11:51:09.241Z,99.90
2018-06-30T11:53:38.371Z,99.90
2018-06-30T11:56:07.503Z,99.90
2018-06-30T11:58:36.643Z,99.90
2018-06-30T12:01:05.781Z,99.90
2018-06-30T12:03:34.957Z,99.90
2018-06-30T12:06:04.024Z,99.90
2018-06-30T12:08:33.211Z,99.90
2018-06-30T12:11:02.326Z,99.90
2018-06-30T12:13:31.460Z,99.90
2018-06-30T12:16:00.592Z,99.90
2018-06-30T12:18:29.743Z,99.90
2018-06-30T12:20:58.893Z,99.90
2018-06-30T12:23:28.024Z,99.90
2018-06-30T12:25:57.160Z,99.90
2018-06-30T12:28:26.289Z,99.90
2018-06-30T12:30:55.421Z,99.90
2018-06-30T12:33:24.549Z,99.90
2018-06-30T12:35:53.672Z,99.90
2018-06-30T12:38:22.794Z,99.90
2018-06-30T12:40:51.924Z,90.70
2018-06-30T12:43:21.049Z,83.90
2018-06-30T12:45:50.184Z,66.90
2018-06-30T12:48:19.304Z,53.10
2018-06-30T12:50:48.432Z,49.80
2018-06-30T12:53:17.557Z,35.80
2018-06-30T12:55:46.675Z,26.40
2018-06-30T12:58:15.792Z,21.20
2018-06-30T13:00:44.955Z,18.40
2018-06-30T13:03:14.113Z,14.50
2018-06-30T13:05:43.258Z,12.20
2018-06-30T13:08:12.395Z,7.20
2018-06-30T13:10:41.516Z,4.40
2018-06-30T13:13:10.627Z,2.10
2018-06-30T13:15:39.743Z,1.00
2018-06-30T13:18:08.917Z,1.00
2018-06-30T13:20:38.039Z,1.00
2018-06-30T13:23:07.174Z,1.00
2018-06-30T13:25:36.283Z,1.00
2018-06-30T13:28:05.440Z,1.00
2018-06-30T13:30:34.572Z,1.00
2018-06-30T13:33:03.702Z,1.00
2018-06-30T13:35:32.822Z,1.00
2018-06-30T13:38:02.192Z,1.00
2018-06-30T13:40:31.323Z,1.00
2018-06-30T13:43:00.451Z,1.00
2018-06-30T13:45:29.574Z,1.00
2018-06-30T13:47:58.708Z,1.00
2018-06-30T13:50:27.889Z,1.00
2018-06-30T13:52:57.016Z,1.00
2018-06-30T13:55:26.128Z,1.00
2018-06-30T13:57:55.244Z,1.00
2018-06-30T14:00:24.367Z,1.00
2018-06-30T14:02:53.491Z,1.00
2018-06-30T14:05:22.621Z,1.00
2018-06-30T14:07:51.761Z,1.00
2018-06-30T14:10:20.897Z,1.00
2018-06-30T14:12:50.074Z,1.00
2018-06-30T14:15:22.144Z,1.00
2018-06-30T14:17:51.283Z,1.00
2018-06-30T14:20:20.395Z,1.00
2018-06-30T14:22:49.525Z,1.00
2018-06-30T14:25:18.652Z,1.00
2018-06-30T14:27:47.768Z,1.00
2018-06-30T14:30:16.896Z,1.00
2018-06-30T14:32:46.011Z,1.00
2018-06-30T14:35:15.142Z,1.00
2018-06-30T14:37:44.326Z,1.00
2018-06-30T14:40:13.408Z,1.00
2018-06-30T14:42:42.531Z,1.00
2018-06-30T14:45:11.673Z,1.00
2018-06-30T14:47:40.794Z,1.00
2018-06-30T14:50:09.926Z,1.00
2018-06-30T14:52:39.170Z,1.00
2018-06-30T14:55:08.301Z,1.00
2018-06-30T14:57:37.426Z,1.00
2018-06-30T15:00:08.212Z,1.00
2018-06-30T15:02:37.511Z,1.00
2018-06-30T15:05:08.022Z,1.00
2018-06-30T15:07:37.172Z,1.00
2018-06-30T15:10:07.429Z,1.00
2018-06-30T15:12:36.584Z,1.00
2018-06-30T15:15:06.124Z,1.00
2018-06-30T15:17:35.269Z,1.00
2018-06-30T15:20:04.617Z,1.00
2018-06-30T15:22:33.763Z,1.00
2018-06-30T15:25:02.916Z,1.00
2018-06-30T15:27:32.073Z,1.00
2018-06-30T15:30:01.200Z,1.00
2018-06-30T15:32:30.351Z,1.00
2018-06-30T15:34:59.502Z,1.00
2018-06-30T15:37:28.655Z,1.00
2018-06-30T15:39:57.848Z,1.00
2018-06-30T15:42:27.086Z,1.00
2018-06-30T15:44:56.240Z,1.00
2018-06-30T15:47:25.370Z,1.00
2018-06-30T15:49:54.531Z,1.00
2018-06-30T15:52:23.677Z,1.00
2018-06-30T15:54:52.831Z,1.00
2018-06-30T15:57:21.973Z,1.00
2018-06-30T15:59:51.122Z,1.00
2018-06-30T16:02:20.265Z,1.00
2018-06-30T16:04:49.398Z,1.00
2018-06-30T16:07:18.534Z,1.00
2018-06-30T16:09:47.706Z,1.00
2018-06-30T16:12:16.844Z,1.00
2018-06-30T16:14:45.962Z,1.00
2018-06-30T16:17:15.080Z,1.00
2018-06-30T16:19:44.200Z,1.00
2018-06-30T16:22:13.329Z,1.00
2018-06-30T16:24:42.439Z,1.00
2018-06-30T16:27:11.553Z,1.00
2018-06-30T16:29:40.683Z,1.00
2018-06-30T16:32:09.799Z,1.00
2018-06-30T16:34:38.922Z,1.00
2018-06-30T16:37:08.039Z,1.00
2018-06-30T16:39:37.148Z,1.00
2018-06-30T16:42:06.266Z,1.00
2018-06-30T16:44:35.380Z,1.00
2018-06-30T16:47:04.516Z,1.00
2018-06-30T16:49:33.648Z,1.00
2018-06-30T16:52:02.882Z,1.00
2018-06-30T16:54:32.011Z,1.00
2018-06-30T16:57:01.129Z,1.00
2018-06-30T16:59:30.254Z,1.00
2018-06-30T17:01:59.354Z,1.00
2018-06-30T17:04:28.462Z,1.00
2018-06-30T17:06:57.578Z,1.00
2018-06-30T17:09:26.732Z,1.00
2018-06-30T17:11:55.874Z,1.00
2018-06-30T17:14:25.031Z,1.00
2018-06-30T17:16:54.167Z,1.00
2018-06-30T17:19:23.306Z,1.00
2018-06-30T17:21:52.439Z,1.00
2018-06-30T17:24:21.595Z,1.00
2018-06-30T17:26:50.736Z,1.00
2018-06-30T17:29:19.917Z,1.00
2018-06-30T17:31:49.052Z,1.00
2018-06-30T17:34:18.225Z,1.00
2018-06-30T17:36:47.427Z,1.00
2018-06-30T17:39:16.550Z,1.00
2018-06-30T17:41:45.695Z,1.00
2018-06-30T17:44:14.839Z,1.00
2018-06-30T17:46:43.989Z,1.00
2018-06-30T17:49:13.156Z,1.00
2018-06-30T17:51:42.510Z,1.00
2018-06-30T17:54:11.634Z,1.00
2018-06-30T17:56:40.788Z,1.00
2018-06-30T17:59:09.944Z,1.00
2018-06-30T18:01:39.743Z,1.00
2018-06-30T18:04:09.060Z,1.00
2018-06-30T18:06:38.249Z,1.00
2018-06-30T18:09:10.784Z,1.00
2018-06-30T18:11:40.540Z,1.00
2018-06-30T18:14:10.104Z,1.00
2018-06-30T18:16:39.476Z,1.00
2018-06-30T18:19:08.768Z,1.00
2018-06-30T18:21:38.167Z,1.00
2018-06-30T18:24:08.496Z,1.00
2018-06-30T18:26:37.909Z,1.00
2018-06-30T18:29:07.190Z,1.00
2018-06-30T18:31:36.382Z,1.00
2018-06-30T18:34:05.738Z,1.00
2018-06-30T18:36:34.930Z,1.00
2018-06-30T18:39:06.274Z,1.00
2018-06-30T18:41:35.436Z,1.00
2018-06-30T18:44:04.606Z,1.00
2018-06-30T18:46:33.765Z,1.00
2018-06-30T18:49:02.949Z,1.00
2018-06-30T18:51:33.606Z,1.00
2018-06-30T18:54:02.779Z,1.00
2018-06-30T18:56:31.992Z,1.00
2018-06-30T18:59:01.147Z,1.00
2018-06-30T19:01:30.272Z,1.00
2018-06-30T19:03:59.440Z,1.00
2018-06-30T19:06:28.614Z,1.00
2018-06-30T19:08:57.880Z,1.00
2018-06-30T19:11:27.004Z,1.00
2018-06-30T19:13:56.149Z,1.00
2018-06-30T19:16:25.291Z,1.00
2018-06-30T19:18:54.515Z,1.00
2018-06-30T19:21:23.668Z,1.00
2018-06-30T19:23:52.859Z,1.00
2018-06-30T19:26:22.005Z,1.00
2018-06-30T19:28:51.318Z,1.00
2018-06-30T19:31:20.526Z,1.00
2018-06-30T19:33:49.644Z,1.00
2018-06-30T19:36:18.772Z,1.00
2018-06-30T19:38:47.922Z,1.00
2018-06-30T19:41:17.047Z,1.00
2018-06-30T19:43:46.178Z,1.00
2018-06-30T19:46:15.324Z,1.00
2018-06-30T19:48:44.454Z,1.00
2018-06-30T19:51:13.610Z,1.00
2018-06-30T19:53:42.751Z,1.00
2018-06-30T19:56:11.860Z,1.00
2018-06-30T19:58:41.013Z,1.00
2018-06-30T20:01:10.203Z,1.00
2018-06-30T20:03:39.355Z,1.00
2018-06-30T20:06:08.609Z,1.00
2018-06-30T20:08:37.815Z,1.00
2018-06-30T20:11:07.043Z,1.00
2018-06-30T20:13:36.269Z,1.00
2018-06-30T20:16:05.394Z,1.00
2018-06-30T20:18:34.529Z,1.00
2018-06-30T20:21:03.683Z,1.00
2018-06-30T20:23:32.844Z,1.00
2018-06-30T20:26:02.008Z,1.00
2018-06-30T20:28:31.142Z,1.00
2018-06-30T20:31:00.442Z,1.00
2018-06-30T20:33:29.499Z,1.00
2018-06-30T20:35:58.661Z,1.00
2018-06-30T20:38:27.820Z,1.00
2018-06-30T20:40:57.011Z,1.00
2018-06-30T20:43:26.187Z,1.00
2018-06-30T20:45:55.340Z,1.00
2018-06-30T20:48:24.529Z,1.00
2018-06-30T20:50:53.864Z,1.00
2018-06-30T20:53:22.879Z,1.00
2018-06-30T20:55:52.042Z,1.00
2018-06-30T20:58:21.317Z,1.00
2018-06-30T21:00:50.460Z,1.00
2018-06-30T21:03:19.624Z,1.00
2018-06-30T21:05:48.817Z,1.00
2018-06-30T21:08:18.037Z,1.00
2018-06-30T21:10:47.068Z,1.00
2018-06-30T21:13:16.209Z,1.00
2018-06-30T21:15:45.320Z,1.00
2018-06-30T21:18:14.432Z,1.00
2018-06-30T21:20:43.606Z,1.00
2018-06-30T21:23:12.851Z,1.00
2018-06-30T21:25:41.996Z,1.00
2018-06-30T21:28:11.110Z,1.00
2018-06-30T21:30:40.361Z,1.00
2018-06-30T21:33:09.520Z,1.00
2018-06-30T21:35:38.680Z,1.00
2018-06-30T21:38:07.812Z,1.00
2018-06-30T21:40:36.931Z,1.00
2018-06-30T21:43:06.184Z,1.20
2018-06-30T21:45:35.315Z,1.90
2018-06-30T21:48:04.440Z,2.40
2018-06-30T21:50:33.627Z,2.80
2018-06-30T21:53:02.742Z,3.30
2018-06-30T21:55:31.862Z,3.60
2018-06-30T21:58:00.982Z,4.20
2018-06-30T22:00:47.779Z,4.70
2018-06-30T22:03:19.136Z,4.90
2018-06-30T22:05:48.247Z,5.60
2018-06-30T22:08:17.381Z,6.00
2018-06-30T22:10:46.666Z,6.70
2018-06-30T22:13:15.701Z,7.20
2018-06-30T22:15:44.835Z,7.50
2018-06-30T22:18:14.016Z,7.90
2018-06-30T22:20:43.112Z,8.30
2018-06-30T22:23:12.377Z,9.00
2018-06-30T22:25:41.512Z,9.20
2018-06-30T22:28:10.636Z,9.60
2018-06-30T22:30:39.764Z,10.00
2018-06-30T22:33:08.899Z,10.60
2018-06-30T22:35:38.032Z,11.50
2018-06-30T22:38:07.211Z,12.10
2018-06-30T22:40:36.348Z,12.80
2018-06-30T22:43:05.474Z,13.70
2018-06-30T22:45:34.595Z,14.60
2018-06-30T22:48:03.727Z,15.20
2018-06-30T22:50:32.892Z,16.00
2018-06-30T22:53:02.012Z,17.90
2018-06-30T22:55:31.152Z,18.60
2018-06-30T22:58:00.271Z,19.10
2018-06-30T23:00:29.485Z,19.90
2018-06-30T23:02:58.544Z,21.10
2018-06-30T23:05:27.689Z,23.10
2018-06-30T23:07:56.984Z,24.40
2018-06-30T23:10:26.108Z,25.80
2018-06-30T23:12:55.245Z,37.10
2018-06-30T23:15:24.368Z,28.70
2018-06-30T23:17:53.506Z,30.60
2018-06-30T23:20:22.653Z,43.90
2018-06-30T23:23:01.410Z,34.40
2018-06-30T23:25:31.535Z,36.70
2018-06-30T23:28:00.974Z,40.70
2018-06-30T23:30:30.592Z,43.00
2018-06-30T23:32:59.733Z,44.50
2018-06-30T23:35:29.844Z,47.00
2018-06-30T23:37:59.773Z,49.70
2018-06-30T23:40:28.908Z,52.10
2018-06-30T23:42:58.032Z,54.90
2018-06-30T23:45:27.169Z,57.80
2018-06-30T23:47:56.290Z,61.70
2018-06-30T23:50:25.400Z,66.50
2018-06-30T23:52:54.535Z,73.40
2018-06-30T23:55:23.652Z,78.00
2018-06-30T23:57:52.796Z,84.00
